Terminal Aerodrome Forecast
Issued by NWS

Home | Current Version | Previous Version | Text Only | Print | Product List | Glossary On
Versions: 1 2 3 4 5 6 7 8 9 10 11 12 13 14 15
000
FTUS42 KTBW 222300
TAFPGD
TAF
KPGD 222326Z 2300/2324 19008KT P6SM BKN250
     FM230600 16004KT 3SM BR SCT005 BKN025
     FM230800 14004KT 1SM BR SCT002 BKN005
     FM231500 15012KT 6SM BR SCT008 BKN015=

USA.gov is the U.S. government's official web portal to all federal, state and local government web resources and services.